Time;durP1;ratioP1;P1;durP2;ratioP2;P2;SDS_P1;SDS_P2;PMS_P1;PMS_P2;Temp;Humidity;BMP_temperature;BMP_pressure;BME280_temperature;BME280_humidity;BME280_pressure;Samples;Min_cycle;Max_cycle;Signal;HPM_P1;HPM_P2
2022/10/18 00:02:19;;;;;;;28.73;16.88;;;13.50;99.90;;;;;;5092274;28;20127;-46
2022/10/18 00:04:45;;;;;;;26.73;16.10;;;12.90;99.90;;;;;;5091982;28;20128;-48
2022/10/18 00:07:11;;;;;;;23.13;15.45;;;13.40;99.90;;;;;;5092271;28;20032;-47
2022/10/18 00:09:37;;;;;;;30.70;17.67;;;13.40;99.90;;;;;;5092182;28;20036;-48
2022/10/18 00:12:02;;;;;;;30.52;16.45;;;13.40;99.90;;;;;;5091665;28;20104;-48
2022/10/18 00:14:28;;;;;;;25.92;17.08;;;13.40;99.90;;;;;;5091872;28;20124;-48
2022/10/18 00:16:54;;;;;;;28.38;16.00;;;13.30;99.90;;;;;;5092191;28;20032;-47
2022/10/18 00:19:20;;;;;;;28.33;16.65;;;13.40;99.90;;;;;;5091984;28;20040;-48
2022/10/18 00:21:48;;;;;;;33.92;18.08;;;12.80;99.90;;;;;;5092042;28;20147;-50
2022/10/18 00:24:14;;;;;;;32.60;17.10;;;13.20;99.90;;;;;;5091986;28;20177;-48
2022/10/18 00:26:39;;;;;;;30.35;16.88;;;12.80;99.90;;;;;;5091761;28;20135;-47
2022/10/18 00:29:05;;;;;;;27.60;17.23;;;12.90;99.90;;;;;;5091979;28;20051;-47
2022/10/18 00:31:34;;;;;;;27.08;15.40;;;13.10;99.90;;;;;;5091906;28;20117;-46
2022/10/18 00:34:02;;;;;;;32.60;16.98;;;12.90;99.90;;;;;;5091797;28;20396;-47
2022/10/18 00:36:30;;;;;;;24.83;16.08;;;13.20;99.90;;;;;;5091748;28;20032;-47
2022/10/18 00:38:57;;;;;;;27.55;14.48;;;12.70;99.90;;;;;;5087474;28;20048;-48
2022/10/18 00:41:28;;;;;;;25.52;15.85;;;13.00;99.90;;;;;;5071436;28;20063;-49
2022/10/18 00:43:57;;;;;;;25.52;15.75;;;12.70;99.90;;;;;;5071556;28;20044;-48
2022/10/18 00:46:24;;;;;;;31.88;17.45;;;12.70;99.90;;;;;;5071480;28;20055;-47
2022/10/18 00:48:51;;;;;;;28.65;16.98;;;13.10;99.90;;;;;;5075280;28;20047;-46
2022/10/18 00:51:19;;;;;;;30.52;17.77;;;12.60;99.90;;;;;;5074947;28;20411;-47
2022/10/18 00:53:45;;;;;;;32.72;19.20;;;12.90;99.90;;;;;;5074978;28;20048;-48
2022/10/18 00:56:12;;;;;;;32.08;19.48;;;12.60;99.90;;;;;;5074760;28;20085;-47
2022/10/18 00:58:38;;;;;;;44.42;20.33;;;13.10;99.90;;;;;;5076551;28;20040;-48
2022/10/18 01:01:04;;;;;;;79.80;21.50;;;12.50;99.90;;;;;;5095331;28;20131;-47
2022/10/18 01:03:30;;;;;;;99.28;21.50;;;12.50;99.90;;;;;;5095069;28;20059;-47
2022/10/18 01:05:56;;;;;;;43.92;17.08;;;12.80;99.90;;;;;;5095197;28;20442;-50
2022/10/18 01:08:41;;;;;;;71.30;21.33;;;13.00;99.90;;;;;;5094771;28;20032;-48
2022/10/18 01:11:22;;;;;;;53.60;19.95;;;13.10;99.90;;;;;;5094919;28;20118;-48
2022/10/18 01:13:55;;;;;;;80.07;23.83;;;12.90;99.90;;;;;;5094671;28;20125;-48
2022/10/18 01:16:51;;;;;;;65.63;21.20;;;13.20;99.90;;;;;;5094546;28;20048;-47
2022/10/18 01:19:42;;;;;;;44.72;20.80;;;13.20;99.90;;;;;;5094490;28;20040;-47
2022/10/18 01:22:22;;;;;;;56.30;20.90;;;12.70;99.90;;;;;;5094567;28;20510;-47
2022/10/18 01:25:02;;;;;;;55.20;22.05;;;13.00;99.90;;;;;;5094567;28;20064;-46
2022/10/18 01:27:39;;;;;;;50.55;22.05;;;13.30;99.90;;;;;;5094403;28;20036;-50
2022/10/18 01:30:28;;;;;;;89.22;22.60;;;13.20;99.90;;;;;;5094139;28;20481;-48
2022/10/18 01:32:59;;;;;;;60.25;21.80;;;12.60;99.90;;;;;;5088559;28;20044;-48
2022/10/18 01:35:38;;;;;;;58.97;22.70;;;13.20;99.90;;;;;;5094543;28;20047;-49
2022/10/18 01:38:08;;;;;;;38.53;20.70;;;12.70;99.90;;;;;;5094245;28;20044;-46
2022/10/18 01:40:34;;;;;;;67.93;21.88;;;13.10;99.90;;;;;;5076907;28;20170;-49
2022/10/18 01:43:02;;;;;;;68.47;21.92;;;13.10;99.90;;;;;;5072900;28;20093;-48
2022/10/18 01:45:29;;;;;;;85.35;22.20;;;13.10;99.90;;;;;;5073986;28;20040;-48
2022/10/18 01:47:55;;;;;;;73.22;21.83;;;13.30;99.90;;;;;;5074040;28;20383;-48
2022/10/18 01:50:32;;;;;;;119.90;21.90;;;12.60;99.90;;;;;;5073775;28;20040;-47
2022/10/18 01:52:58;;;;;;;73.60;21.00;;;13.30;99.90;;;;;;5072693;28;20036;-48
2022/10/18 01:55:37;;;;;;;102.13;22.63;;;13.30;99.90;;;;;;5073701;28;20634;-47
2022/10/18 01:58:17;;;;;;;71.43;20.63;;;13.30;99.90;;;;;;5073329;28;20036;-47
2022/10/18 02:00:43;;;;;;;87.32;22.70;;;13.00;99.90;;;;;;5073532;28;20044;-47
2022/10/18 02:03:22;;;;;;;109.43;23.17;;;12.90;99.90;;;;;;5073834;28;20040;-50
2022/10/18 02:05:56;;;;;;;78.85;22.38;;;12.80;99.90;;;;;;5073728;28;20048;-47
2022/10/18 02:08:36;;;;;;;85.75;21.20;;;12.70;99.90;;;;;;5073229;28;20504;-49
2022/10/18 02:11:13;;;;;;;71.22;21.20;;;12.60;99.90;;;;;;5073306;28;20082;-48
2022/10/18 02:13:42;;;;;;;46.22;19.67;;;12.50;99.90;;;;;;5073013;28;20071;-50
2022/10/18 02:16:44;;;;;;;37.05;19.67;;;12.50;99.90;;;;;;5073573;28;20438;-47
2022/10/18 02:19:27;;;;;;;79.88;21.90;;;13.30;99.90;;;;;;5073152;28;20033;-47
2022/10/18 02:21:55;;;;;;;48.55;19.20;;;12.70;99.90;;;;;;5073104;28;20123;-47
2022/10/18 02:24:25;;;;;;;67.85;20.20;;;12.90;99.90;;;;;;5073120;28;20453;-46
2022/10/18 02:26:51;;;;;;;56.13;20.10;;;12.80;99.90;;;;;;5073045;28;20040;-51
2022/10/18 02:29:17;;;;;;;37.30;19.35;;;13.00;99.90;;;;;;5073190;28;20043;-47
2022/10/18 02:31:44;;;;;;;43.70;17.80;;;12.50;99.90;;;;;;5072983;28;20484;-46
2022/10/18 02:34:36;;;;;;;49.40;18.00;;;12.50;99.90;;;;;;5072735;28;20051;-47
2022/10/18 02:37:03;;;;;;;36.97;16.42;;;12.40;99.90;;;;;;5067240;28;20059;-48
2022/10/18 02:39:34;;;;;;;33.50;17.73;;;13.20;99.90;;;;;;5081323;28;20043;-46
2022/10/18 02:42:05;;;;;;;41.92;17.23;;;13.20;99.90;;;;;;5093110;28;20050;-47
2022/10/18 02:44:32;;;;;;;31.08;16.45;;;13.00;99.90;;;;;;5092956;28;20044;-47
2022/10/18 02:46:57;;;;;;;33.17;16.23;;;13.10;99.90;;;;;;5093132;28;20120;-47
2022/10/18 02:49:23;;;;;;;34.97;17.80;;;13.00;99.90;;;;;;5093165;28;20114;-47
2022/10/18 02:51:48;;;;;;;29.40;16.98;;;12.50;99.90;;;;;;5093016;28;20040;-47
2022/10/18 02:54:14;;;;;;;27.17;16.58;;;12.80;99.90;;;;;;5093136;28;20040;-46
2022/10/18 02:56:40;;;;;;;45.40;17.42;;;13.00;99.90;;;;;;5092826;28;20093;-47
2022/10/18 02:59:06;;;;;;;37.53;16.60;;;12.40;99.90;;;;;;5092707;28;20121;-47
2022/10/18 03:01:33;;;;;;;28.65;15.75;;;12.70;99.90;;;;;;5092959;28;20450;-48
2022/10/18 03:03:59;;;;;;;34.05;15.93;;;12.90;99.90;;;;;;5092617;28;20047;-46
2022/10/18 03:06:24;;;;;;;45.40;16.13;;;12.50;99.90;;;;;;5092643;28;20126;-47
2022/10/18 03:08:50;;;;;;;51.58;15.85;;;12.90;99.90;;;;;;5090897;28;20119;-50
2022/10/18 03:11:15;;;;;;;45.55;15.80;;;12.30;99.90;;;;;;5090839;28;20066;-48
2022/10/18 03:13:41;;;;;;;77.30;18.65;;;12.30;99.90;;;;;;5092359;28;20449;-47
2022/10/18 03:16:07;;;;;;;45.38;16.08;;;12.70;99.90;;;;;;5092726;28;20118;-47
2022/10/18 03:18:32;;;;;;;85.80;17.40;;;12.40;99.90;;;;;;5092356;28;20503;-47
2022/10/18 03:20:58;;;;;;;68.75;17.08;;;12.30;99.90;;;;;;5092466;28;20078;-47
2022/10/18 03:23:24;;;;;;;59.30;16.73;;;12.70;99.90;;;;;;5092573;28;20067;-47
2022/10/18 03:25:49;;;;;;;82.25;17.17;;;12.70;99.90;;;;;;5092511;28;20051;-47
2022/10/18 03:28:15;;;;;;;57.30;15.90;;;12.50;99.90;;;;;;5092350;28;20040;-47
2022/10/18 03:30:41;;;;;;;47.83;14.98;;;12.40;99.90;;;;;;5092475;28;20121;-47
2022/10/18 03:33:06;;;;;;;66.07;15.73;;;12.50;99.90;;;;;;5092256;28;20170;-47
2022/10/18 03:35:32;;;;;;;35.22;14.38;;;12.60;99.90;;;;;;5092270;28;20043;-48
2022/10/18 03:37:58;;;;;;;75.38;16.55;;;12.70;99.90;;;;;;5092222;28;20069;-51
2022/10/18 03:40:23;;;;;;;84.55;16.83;;;12.10;99.90;;;;;;5076350;28;20028;-46
2022/10/18 03:42:49;;;;;;;73.53;16.48;;;12.60;99.90;;;;;;5071045;28;20392;-48
2022/10/18 03:45:14;;;;;;;54.38;14.57;;;12.40;99.90;;;;;;5072205;28;20040;-47
2022/10/18 03:47:40;;;;;;;78.03;17.08;;;12.50;99.90;;;;;;5071842;28;20066;-48
2022/10/18 03:50:06;;;;;;;33.42;14.88;;;12.50;99.90;;;;;;5071804;28;20041;-47
2022/10/18 03:52:32;;;;;;;50.15;16.98;;;12.10;99.90;;;;;;5071609;28;20485;-47
2022/10/18 03:54:57;;;;;;;49.67;15.82;;;12.40;99.90;;;;;;5070687;28;20028;-46
2022/10/18 03:57:23;;;;;;;81.68;19.50;;;12.00;99.90;;;;;;5071753;28;20499;-49
2022/10/18 03:59:49;;;;;;;54.85;17.13;;;12.00;99.90;;;;;;5083510;28;20476;-46
2022/10/18 04:02:14;;;;;;;27.42;15.85;;;11.90;99.90;;;;;;5092359;28;20040;-48
2022/10/18 04:04:40;;;;;;;33.40;15.88;;;12.00;99.90;;;;;;5092023;28;20280;-46
2022/10/18 04:07:06;;;;;;;62.38;16.77;;;12.50;99.90;;;;;;5091900;28;20040;-48
2022/10/18 04:09:31;;;;;;;108.55;18.88;;;12.10;99.90;;;;;;5091825;28;20051;-46
2022/10/18 04:11:57;;;;;;;79.03;17.33;;;11.80;99.90;;;;;;5091573;28;20067;-51
2022/10/18 04:14:23;;;;;;;43.65;16.05;;;12.00;99.90;;;;;;5090495;28;20040;-46
2022/10/18 04:16:48;;;;;;;48.88;17.02;;;12.40;99.90;;;;;;5090901;28;20498;-46
2022/10/18 04:19:15;;;;;;;38.10;15.45;;;12.20;99.90;;;;;;5091931;28;20392;-46
2022/10/18 04:21:40;;;;;;;76.88;16.63;;;12.20;99.90;;;;;;5092938;28;20036;-46
2022/10/18 04:24:06;;;;;;;46.78;15.93;;;12.30;99.90;;;;;;5095891;28;20051;-47
2022/10/18 04:26:31;;;;;;;67.78;17.10;;;12.30;99.90;;;;;;5095926;28;20395;-47
2022/10/18 04:28:57;;;;;;;70.00;17.40;;;12.30;99.90;;;;;;5095757;28;20044;-47
2022/10/18 04:31:23;;;;;;;29.10;14.45;;;11.90;99.90;;;;;;5095766;28;20044;-46
2022/10/18 04:33:48;;;;;;;36.00;14.38;;;11.80;99.90;;;;;;5095778;28;20572;-47
2022/10/18 04:36:14;;;;;;;63.42;14.98;;;11.70;99.90;;;;;;5095712;28;20426;-46
2022/10/18 04:38:40;;;;;;;68.45;16.73;;;12.20;99.90;;;;;;5093629;28;20396;-47
2022/10/18 04:41:05;;;;;;;32.25;13.68;;;11.60;99.90;;;;;;5075273;28;20397;-47
2022/10/18 04:43:31;;;;;;;59.42;15.95;;;11.70;99.90;;;;;;5075246;28;20490;-45
2022/10/18 04:45:56;;;;;;;48.55;14.13;;;11.90;99.90;;;;;;5094882;28;20070;-45
2022/10/18 04:48:22;;;;;;;49.83;14.52;;;12.10;99.90;;;;;;5095432;28;20036;-46
2022/10/18 04:50:49;;;;;;;38.45;14.45;;;11.70;99.90;;;;;;5095170;28;20055;-47
2022/10/18 04:53:15;;;;;;;43.75;14.15;;;11.70;99.90;;;;;;5094171;28;20044;-47
2022/10/18 04:55:48;;;;;;;50.72;14.40;;;11.70;99.90;;;;;;5094218;28;20040;-46
2022/10/18 04:58:16;;;;;;;38.35;13.77;;;11.80;99.90;;;;;;5094488;28;20048;-47
2022/10/18 05:00:42;;;;;;;132.30;18.08;;;11.70;99.90;;;;;;5094355;28;20040;-49
2022/10/18 05:03:09;;;;;;;32.78;14.70;;;11.50;99.90;;;;;;5094000;28;20067;-46
2022/10/18 05:05:35;;;;;;;30.25;13.93;;;11.90;99.90;;;;;;5093964;28;20074;-47
2022/10/18 05:08:01;;;;;;;73.53;15.65;;;11.60;99.90;;;;;;5093504;28;20689;-47
2022/10/18 05:10:27;;;;;;;40.38;14.10;;;11.70;99.90;;;;;;5094069;28;20126;-47
2022/10/18 05:12:52;;;;;;;45.28;13.18;;;11.80;99.90;;;;;;5093076;28;20130;-50
2022/10/18 05:15:18;;;;;;;38.70;13.48;;;11.90;99.90;;;;;;5093754;28;20048;-47
2022/10/18 05:17:44;;;;;;;54.70;14.00;;;11.90;99.90;;;;;;5094260;28;20047;-47
2022/10/18 05:20:09;;;;;;;56.95;13.98;;;11.90;99.90;;;;;;5094773;28;20039;-48
2022/10/18 05:22:35;;;;;;;67.70;13.77;;;11.80;99.90;;;;;;5094502;28;20503;-47
2022/10/18 05:25:01;;;;;;;63.38;14.65;;;11.50;99.90;;;;;;5094712;28;20044;-46
2022/10/18 05:27:27;;;;;;;43.22;13.27;;;11.40;99.90;;;;;;5093579;28;20500;-46
2022/10/18 05:29:53;;;;;;;43.00;13.23;;;11.30;99.90;;;;;;5094690;28;20043;-46
2022/10/18 05:32:19;;;;;;;27.40;11.75;;;11.30;99.90;;;;;;5093694;28;20392;-48
2022/10/18 05:34:44;;;;;;;38.53;12.27;;;11.30;99.90;;;;;;5094666;28;20475;-46
2022/10/18 05:37:10;;;;;;;41.63;12.43;;;11.20;99.90;;;;;;5094368;28;20395;-47
2022/10/18 05:39:37;;;;;;;55.22;13.43;;;11.60;99.90;;;;;;5084616;28;20041;-47
2022/10/18 05:42:03;;;;;;;53.35;13.88;;;11.50;99.90;;;;;;5073888;28;20037;-47
2022/10/18 05:44:28;;;;;;;45.20;12.15;;;11.50;99.90;;;;;;5074145;28;20373;-46
2022/10/18 05:46:54;;;;;;;35.33;12.80;;;11.20;99.90;;;;;;5073829;28;20047;-47
2022/10/18 05:49:20;;;;;;;34.95;11.10;;;11.40;99.90;;;;;;5074098;28;20124;-51
2022/10/18 05:51:45;;;;;;;26.58;11.57;;;11.30;99.90;;;;;;5073907;28;20495;-48
2022/10/18 05:54:12;;;;;;;30.60;11.00;;;11.00;99.90;;;;;;5072430;28;20083;-48
2022/10/18 05:56:38;;;;;;;35.70;11.25;;;11.00;99.90;;;;;;5073443;28;20032;-48
2022/10/18 05:59:06;;;;;;;14.35;9.93;;;10.90;99.90;;;;;;5077471;28;20118;-48
2022/10/18 06:01:32;;;;;;;29.23;10.50;;;11.00;99.90;;;;;;5094346;28;20044;-47
2022/10/18 06:03:58;;;;;;;22.38;9.32;;;11.10;99.90;;;;;;5075624;28;20055;-45
2022/10/18 06:06:23;;;;;;;19.63;9.63;;;11.00;99.90;;;;;;5093968;28;20058;-48
2022/10/18 06:08:49;;;;;;;21.45;9.95;;;11.20;99.90;;;;;;5093807;28;20047;-45
2022/10/18 06:11:17;;;;;;;24.25;9.40;;;11.20;99.90;;;;;;5093892;28;20035;-47
2022/10/18 06:13:47;;;;;;;28.38;10.18;;;11.00;99.90;;;;;;5093466;28;20048;-47
2022/10/18 06:16:14;;;;;;;29.73;9.93;;;10.80;99.90;;;;;;5093814;28;20164;-46
2022/10/18 06:18:40;;;;;;;26.08;9.32;;;11.10;99.90;;;;;;5092532;28;20426;-47
2022/10/18 06:21:06;;;;;;;19.80;8.43;;;11.10;99.90;;;;;;5093356;28;20085;-46
2022/10/18 06:23:33;;;;;;;20.75;8.40;;;11.10;99.90;;;;;;5093617;28;20119;-46
2022/10/18 06:26:00;;;;;;;10.60;6.07;;;10.90;99.90;;;;;;5093539;28;20174;-46
2022/10/18 06:28:27;;;;;;;14.80;6.22;;;10.80;99.90;;;;;;5093248;28;20087;-47
2022/10/18 06:30:53;;;;;;;11.13;6.13;;;10.70;99.90;;;;;;5093205;28;20633;-48
2022/10/18 06:33:19;;;;;;;9.70;6.43;;;11.00;99.90;;;;;;5093304;28;20052;-47
2022/10/18 06:35:54;;;;;;;11.13;6.45;;;10.70;99.90;;;;;;5092871;28;20032;-48
2022/10/18 06:38:19;;;;;;;10.98;6.63;;;10.60;99.90;;;;;;5091912;28;20384;-46
2022/10/18 06:40:46;;;;;;;14.07;6.35;;;10.90;99.90;;;;;;5092935;28;20044;-47
2022/10/18 06:43:12;;;;;;;25.88;7.85;;;10.80;99.90;;;;;;5092962;28;20075;-47
2022/10/18 06:45:38;;;;;;;12.00;6.20;;;10.80;99.90;;;;;;5093093;28;20112;-47
2022/10/18 06:48:04;;;;;;;15.95;5.72;;;10.60;99.90;;;;;;5092575;28;20036;-48
2022/10/18 06:50:30;;;;;;;13.57;6.45;;;10.80;99.90;;;;;;5092002;28;20060;-47
2022/10/18 06:52:55;;;;;;;11.10;5.95;;;10.50;99.90;;;;;;5091989;28;20036;-47
2022/10/18 06:55:21;;;;;;;15.25;6.00;;;10.50;99.90;;;;;;5090983;28;20123;-48
2022/10/18 06:57:47;;;;;;;14.93;5.70;;;10.90;99.90;;;;;;5092075;28;20040;-47
2022/10/18 07:00:13;;;;;;;19.45;5.55;;;10.60;99.90;;;;;;5091841;28;20040;-47
2022/10/18 07:02:40;;;;;;;29.55;6.13;;;10.80;99.90;;;;;;5091992;28;20431;-49
2022/10/18 07:05:10;;;;;;;23.65;5.15;;;10.50;99.90;;;;;;5090642;28;20058;-48
2022/10/18 07:07:36;;;;;;;17.10;5.53;;;10.50;99.90;;;;;;5091803;28;20044;-50
2022/10/18 07:10:03;;;;;;;15.95;6.15;;;10.70;99.90;;;;;;5091893;28;20052;-50
2022/10/18 07:12:30;;;;;;;9.48;6.03;;;10.50;99.90;;;;;;5091461;28;20090;-48
2022/10/18 07:14:56;;;;;;;11.88;5.43;;;10.80;99.90;;;;;;5090523;28;20126;-51
2022/10/18 07:17:22;;;;;;;10.13;5.75;;;10.70;99.90;;;;;;5091897;28;20118;-48
2022/10/18 07:19:47;;;;;;;9.80;5.20;;;10.80;99.90;;;;;;5091737;28;20044;-47
2022/10/18 07:22:13;;;;;;;12.20;5.78;;;10.70;99.90;;;;;;5092024;28;20036;-47
2022/10/18 07:24:39;;;;;;;9.40;5.57;;;10.70;99.90;;;;;;5090502;28;20407;-48
2022/10/18 07:27:04;;;;;;;10.00;5.53;;;10.90;99.90;;;;;;5090261;28;20044;-49
2022/10/18 07:29:30;;;;;;;9.75;5.65;;;11.00;99.90;;;;;;5090773;28;20047;-49
2022/10/18 07:31:56;;;;;;;9.35;5.93;;;11.20;99.90;;;;;;5089629;28;20059;-48
2022/10/18 07:34:22;;;;;;;9.15;5.60;;;10.90;99.90;;;;;;5091131;28;20101;-50
2022/10/18 07:36:47;;;;;;;8.88;5.28;;;11.10;99.90;;;;;;5090665;28;20668;-51
2022/10/18 07:39:13;;;;;;;10.63;5.85;;;11.10;99.90;;;;;;5084349;28;20060;-47
2022/10/18 07:41:39;;;;;;;8.18;5.20;;;11.00;99.90;;;;;;5070900;28;20048;-48
2022/10/18 07:44:05;;;;;;;9.98;5.35;;;11.10;99.90;;;;;;5071099;28;20052;-49
2022/10/18 07:46:30;;;;;;;8.73;4.75;;;11.20;99.90;;;;;;5071314;28;20056;-48
2022/10/18 07:48:58;;;;;;;8.63;5.00;;;11.40;99.90;;;;;;5071145;28;20602;-47
2022/10/18 07:51:25;;;;;;;8.40;4.90;;;11.40;99.90;;;;;;5071178;28;20420;-50
2022/10/18 07:53:51;;;;;;;8.65;5.20;;;11.30;99.90;;;;;;5071356;28;20101;-47
2022/10/18 07:56:19;;;;;;;11.52;5.10;;;11.30;99.90;;;;;;5072939;28;20032;-51
2022/10/18 07:58:47;;;;;;;9.02;4.60;;;11.40;99.90;;;;;;5076264;28;20044;-48
2022/10/18 08:01:13;;;;;;;9.82;4.80;;;11.50;99.90;;;;;;5095596;28;20044;-47
2022/10/18 08:03:40;;;;;;;9.80;5.00;;;11.40;99.90;;;;;;5094957;28;20036;-47
2022/10/18 08:06:08;;;;;;;8.90;5.30;;;11.70;99.90;;;;;;5095073;28;20081;-50
2022/10/18 08:08:35;;;;;;;9.25;4.70;;;11.60;99.90;;;;;;5094933;28;20047;-47
2022/10/18 08:11:10;;;;;;;9.60;5.70;;;11.60;99.90;;;;;;5094871;28;20044;-47
2022/10/18 08:13:36;;;;;;;9.48;4.90;;;11.70;99.90;;;;;;5094568;28;20056;-48
2022/10/18 08:16:23;;;;;;;9.60;5.30;;;12.00;99.90;;;;;;5093834;28;20565;-48
2022/10/18 08:18:49;;;;;;;10.48;5.32;;;11.80;99.90;;;;;;5094801;28;20044;-46
2022/10/18 08:21:16;;;;;;;12.25;5.32;;;11.90;99.90;;;;;;5095073;28;20044;-46
2022/10/18 08:23:43;;;;;;;9.05;4.72;;;12.10;99.90;;;;;;5092227;28;20090;-48
2022/10/18 08:26:11;;;;;;;8.63;4.82;;;12.40;99.90;;;;;;5082258;28;20043;-48
2022/10/18 08:28:37;;;;;;;11.07;4.30;;;12.10;99.90;;;;;;5083037;28;20095;-49
2022/10/18 08:31:09;;;;;;;9.95;4.28;;;12.20;99.90;;;;;;5074753;28;20064;-47
2022/10/18 08:33:38;;;;;;;12.82;4.82;;;12.50;99.90;;;;;;5074271;28;20048;-48
2022/10/18 08:36:06;;;;;;;10.50;4.00;;;12.60;99.90;;;;;;5074353;28;20465;-49
2022/10/18 08:38:34;;;;;;;17.33;4.30;;;12.60;99.90;;;;;;5075016;28;20123;-47
2022/10/18 08:41:31;;;;;;;16.73;4.30;;;12.50;99.90;;;;;;5091073;28;20476;-47
2022/10/18 08:44:20;;;;;;;10.63;3.70;;;12.90;99.90;;;;;;5082273;28;20124;-50
2022/10/18 08:46:49;;;;;;;9.98;3.65;;;13.00;99.90;;;;;;5075774;28;20419;-47
2022/10/18 08:49:59;;;;;;;13.15;3.58;;;12.70;99.90;;;;;;5073905;28;20488;-54
2022/10/18 08:52:56;;;;;;;8.35;3.17;;;13.10;99.90;;;;;;5079204;28;20060;-54
2022/10/18 08:55:35;;;;;;;11.45;3.40;;;13.30;99.90;;;;;;5089836;28;20101;-55
2022/10/18 08:58:12;;;;;;;10.93;3.65;;;12.90;99.90;;;;;;5090831;28;20510;-54
2022/10/18 09:00:44;;;;;;;14.73;4.05;;;13.20;99.90;;;;;;5090688;28;20036;-55
2022/10/18 09:03:27;;;;;;;12.90;2.97;;;13.00;99.90;;;;;;5090261;28;20043;-48
2022/10/18 09:06:00;;;;;;;13.95;3.10;;;13.40;99.90;;;;;;5094819;28;20048;-47
2022/10/18 09:09:13;;;;;;;11.18;2.83;;;13.40;99.90;;;;;;5091607;28;20114;-46
2022/10/18 09:11:56;;;;;;;13.93;3.28;;;13.50;99.90;;;;;;5088956;28;20048;-48
2022/10/18 09:14:22;;;;;;;10.93;2.10;;;13.30;99.90;;;;;;5094363;28;20048;-47
2022/10/18 09:16:54;;;;;;;15.25;3.00;;;13.60;99.90;;;;;;5094461;28;20510;-48
2022/10/18 09:19:46;;;;;;;20.17;2.88;;;13.70;99.90;;;;;;5094645;28;20092;-47
2022/10/18 09:22:17;;;;;;;11.43;2.35;;;13.50;99.90;;;;;;5094002;28;20097;-45
2022/10/18 09:25:08;;;;;;;13.65;2.60;;;13.50;99.90;;;;;;5092823;28;20587;-46
2022/10/18 09:27:47;;;;;;;16.00;2.40;;;13.60;99.90;;;;;;5094256;28;20093;-47
2022/10/18 09:30:22;;;;;;;14.07;2.22;;;13.80;99.90;;;;;;5094534;28;20044;-46
2022/10/18 09:32:58;;;;;;;13.60;2.45;;;13.90;99.90;;;;;;5094546;28;20040;-46
2022/10/18 09:35:37;;;;;;;16.58;2.95;;;14.00;99.90;;;;;;5094242;28;20044;-46
2022/10/18 09:38:08;;;;;;;10.80;2.42;;;14.10;99.90;;;;;;5094232;28;20515;-46
2022/10/18 09:40:38;;;;;;;12.40;2.40;;;14.10;99.90;;;;;;5094618;28;20036;-46
2022/10/18 09:43:16;;;;;;;14.93;2.33;;;13.90;99.90;;;;;;5092976;28;20282;-47
2022/10/18 09:45:44;;;;;;;10.25;1.90;;;14.20;99.90;;;;;;5094373;28;20047;-47
2022/10/18 09:48:22;;;;;;;11.05;2.30;;;14.20;99.90;;;;;;5094314;28;20036;-46
2022/10/18 09:51:02;;;;;;;12.85;2.05;;;14.30;99.90;;;;;;5094135;28;20048;-47
2022/10/18 09:54:01;;;;;;;9.50;2.08;;;14.20;99.90;;;;;;5093837;28;20477;-48
2022/10/18 09:57:08;;;;;;;14.50;2.65;;;14.20;99.90;;;;;;5094088;28;20036;-46
2022/10/18 09:59:48;;;;;;;10.70;2.03;;;14.20;99.90;;;;;;5093576;28;20040;-51
2022/10/18 10:02:20;;;;;;;17.75;2.63;;;14.30;99.90;;;;;;5093434;28;20044;-46
2022/10/18 10:04:46;;;;;;;;;;;14.40;99.90;;;;;;5094185;28;20457;-46
2022/10/18 10:07:41;;;;;;;9.48;2.42;;;14.60;99.90;;;;;;5093831;28;19963;-48
2022/10/18 10:10:20;;;;;;;15.23;2.20;;;14.50;99.90;;;;;;5083367;28;20036;-47
2022/10/18 10:12:46;;;;;;;18.73;2.28;;;14.70;99.90;;;;;;5093206;28;20048;-46
2022/10/18 10:15:17;;;;;;;10.65;1.80;;;14.70;99.90;;;;;;5093758;28;20383;-48
2022/10/18 10:17:52;;;;;;;12.48;1.65;;;14.80;99.90;;;;;;5093442;28;20481;-48
2022/10/18 10:20:22;;;;;;;10.40;2.00;;;14.60;99.90;;;;;;5084216;28;20064;-47
2022/10/18 10:22:49;;;;;;;17.30;2.15;;;14.90;99.90;;;;;;5082645;28;20040;-48
2022/10/18 10:25:23;;;;;;;10.40;2.10;;;14.80;99.90;;;;;;5091661;28;20488;-46
2022/10/18 10:27:49;;;;;;;16.40;2.67;;;15.00;99.90;;;;;;5093226;28;20083;-47
2022/10/18 10:30:23;;;;;;;12.52;2.65;;;15.00;99.90;;;;;;5092193;28;20036;-50
2022/10/18 10:32:50;;;;;;;11.15;1.95;;;15.10;99.90;;;;;;5093074;28;20400;-46
2022/10/18 10:35:39;;;;;;;10.95;1.67;;;15.10;99.90;;;;;;5092830;28;20028;-46
2022/10/18 10:38:06;;;;;;;8.85;1.42;;;14.90;99.90;;;;;;5090086;28;20056;-47
2022/10/18 10:40:49;;;;;;;11.60;1.85;;;14.80;99.90;;;;;;5075757;28;20047;-46
2022/10/18 10:43:20;;;;;;;14.52;1.85;;;14.90;99.90;;;;;;5072456;28;20032;-49
2022/10/18 10:45:52;;;;;;;10.80;1.58;;;15.10;99.90;;;;;;5072628;28;20051;-47
2022/10/18 10:48:18;;;;;;;8.93;1.77;;;15.20;99.90;;;;;;5077278;28;20047;-46
2022/10/18 10:51:05;;;;;;;10.27;1.80;;;15.40;99.90;;;;;;5087802;28;20042;-46
2022/10/18 10:53:45;;;;;;;10.27;1.55;;;15.50;99.90;;;;;;5092513;28;20575;-46
2022/10/18 10:56:22;;;;;;;7.93;1.42;;;15.40;99.90;;;;;;5092726;28;20042;-47
2022/10/18 10:58:49;;;;;;;12.55;2.25;;;15.10;99.90;;;;;;5092837;28;20406;-47
2022/10/18 11:01:27;;;;;;;11.15;1.67;;;15.10;99.90;;;;;;5092450;28;20032;-46
2022/10/18 11:03:57;;;;;;;9.90;1.73;;;15.30;99.90;;;;;;5087846;28;20098;-47
2022/10/18 11:06:47;;;;;;;7.97;1.70;;;15.20;99.90;;;;;;5092438;28;20040;-49
2022/10/18 11:09:48;;;;;;;12.57;2.35;;;15.40;99.90;;;;;;5092090;28;20059;-47
2022/10/18 11:12:22;;;;;;;12.23;1.73;;;15.60;99.90;;;;;;5068071;28;20052;-47
2022/10/18 11:15:35;;;;;;;11.10;1.90;;;15.70;99.90;;;;;;5079606;28;20044;-48
2022/10/18 11:18:16;;;;;;;10.45;1.52;;;15.60;99.90;;;;;;5086416;28;20157;-46
2022/10/18 11:21:06;;;;;;;22.88;3.78;;;15.80;99.90;;;;;;5092591;28;20039;-47
2022/10/18 11:23:37;;;;;;;10.52;2.05;;;15.90;99.90;;;;;;5091957;28;20101;-48
2022/10/18 11:26:11;;;;;;;9.23;1.60;;;16.10;99.90;;;;;;5090901;28;20130;-47
2022/10/18 11:29:02;;;;;;;11.98;2.03;;;16.00;99.90;;;;;;5091002;28;20048;-46
2022/10/18 11:31:37;;;;;;;10.45;1.60;;;15.60;99.90;;;;;;5090853;28;20043;-46
2022/10/18 11:34:30;;;;;;;9.38;1.80;;;15.80;99.90;;;;;;5092095;28;20040;-47
2022/10/18 11:37:17;;;;;;;12.23;2.22;;;15.90;99.90;;;;;;5090361;28;20506;-47
2022/10/18 11:39:58;;;;;;;12.48;1.77;;;15.60;99.90;;;;;;5080704;28;20051;-48
2022/10/18 11:42:40;;;;;;;10.90;1.60;;;15.40;99.90;;;;;;5081025;28;20032;-49
2022/10/18 11:45:28;;;;;;;11.15;1.60;;;15.20;99.90;;;;;;5079773;28;20481;-46
2022/10/18 11:48:01;;;;;;;12.50;1.73;;;15.20;99.90;;;;;;5071896;28;20048;-46
2022/10/18 11:50:36;;;;;;;12.07;2.75;;;15.00;99.90;;;;;;5072015;28;20478;-48
2022/10/18 11:53:23;;;;;;;8.45;1.55;;;15.10;99.90;;;;;;5071706;28;20057;-47
2022/10/18 11:56:25;;;;;;;14.40;2.20;;;15.40;99.90;;;;;;5090527;28;20044;-46
2022/10/18 11:59:03;;;;;;;13.52;2.25;;;15.40;99.90;;;;;;5090034;28;20391;-46
2022/10/18 12:01:36;;;;;;;10.00;1.88;;;15.40;99.90;;;;;;5091284;28;20040;-46
2022/10/18 12:04:22;;;;;;;7.82;1.98;;;15.50;99.90;;;;;;5091563;28;20038;-48
2022/10/18 12:06:52;;;;;;;13.07;1.60;;;15.70;99.90;;;;;;5091494;28;20046;-46
2022/10/18 12:09:38;;;;;;;12.02;2.10;;;15.70;99.90;;;;;;5091333;28;20480;-46
2022/10/18 12:12:22;;;;;;;16.35;2.05;;;15.90;99.90;;;;;;5091572;28;20098;-46
2022/10/18 12:14:52;;;;;;;11.95;1.58;;;15.90;99.90;;;;;;5092111;28;20059;-46
2022/10/18 12:17:30;;;;;;;9.88;1.95;;;15.80;99.90;;;;;;5090557;28;20040;-48
2022/10/18 12:19:59;;;;;;;6.60;1.35;;;15.80;99.90;;;;;;5092057;28;20119;-46
2022/10/18 12:22:33;;;;;;;10.43;1.70;;;15.70;99.90;;;;;;5092116;28;20449;-45
2022/10/18 12:24:59;;;;;;;10.90;1.88;;;15.80;99.90;;;;;;5092054;28;20040;-48
2022/10/18 12:27:45;;;;;;;9.75;1.42;;;15.60;99.90;;;;;;5092087;28;20051;-46
2022/10/18 12:30:23;;;;;;;9.27;1.75;;;15.70;99.90;;;;;;5091647;28;20539;-48
2022/10/18 12:32:54;;;;;;;9.82;1.88;;;15.40;99.90;;;;;;5091779;28;20044;-45
2022/10/18 12:35:21;;;;;;;13.98;1.67;;;15.10;99.90;;;;;;5091780;28;20115;-47
2022/10/18 12:38:17;;;;;;;9.63;1.70;;;14.90;99.90;;;;;;5091658;28;20549;-47
2022/10/18 12:40:47;;;;;;;10.98;1.90;;;14.90;99.90;;;;;;5072353;28;20036;-46
2022/10/18 12:43:26;;;;;;;15.38;1.90;;;15.00;99.90;;;;;;5074593;28;20044;-46
2022/10/18 12:45:55;;;;;;;9.82;1.42;;;15.10;99.90;;;;;;5075348;28;20056;-48
2022/10/18 12:48:41;;;;;;;11.60;2.15;;;15.20;99.90;;;;;;5075037;28;20484;-46
2022/10/18 12:51:21;;;;;;;9.57;1.73;;;15.10;99.90;;;;;;5073960;28;20123;-46
2022/10/18 12:54:00;;;;;;;11.60;2.10;;;14.90;99.90;;;;;;5074932;28;20124;-48
2022/10/18 12:56:29;;;;;;;9.02;1.77;;;14.70;99.90;;;;;;5074830;28;20054;-46